Accueil
METAR-TAF:

METAR-TAF

Aéroports :

Hermosillo, Mexique

latitude: 29-04N, longitude: 110-57W, altitude: 211 m

Observation

Le bulletin a été fait il y a 1 heure et 5 minutes, à 20:40 UTC
Vent calme
Température 23°C
Humidité 8%
Pression 1017 hPa
Visibilité: 16.1 km
Ciel clair

METAR: MMHO 222040Z 00000KT 10SM SKC 23/M13 A3004 RMK SLP176 57035 981 HZY

Heure: 14:45 (21:45 UTC)

Prévision

Le bulletin a été fait il y a 4 heures et 59 minutes, à 16:46 UTC
Prévision valable du 22 à 18 UTC au 23 à 18 UTC
Vent 10 kt de ouest
Visibilité: 10 km
Ciel clair
Evoluant progressivement
du 23 à 01 UTC au 23 à 02 UTC
Vent kt de nord
A partir de 23 à 1500 UTC
Vent 10 kt de nord-ouest
Visibilité: 10 km
Ciel clair

TAF: MMHO 221646Z 2218/2318 28010KT P6SM SKC BECMG 2301/2302 00000KT FM231500 32010KT P6SM SKC

Observations et prévisions météorologiques de plus de 4000 aéroports (messages METAR et TAF).

Les stations disponibles sont représentées par des disques jaunes et rouges sur la carte.

Passer la souris dessus pour voir le nom de la station.

Cliquer dessus pour voir les observations et prévisions météorologiques.

Pour changer de carte: cliquez sur les boutons verts avec une croix noire pour zoomer, sur le bouton vert avec un tiret pour effectuer un zoom arrière, ou sur les flèches vertes pour les cartes adjacentes.


METAR-TAF: